createdAt,value
2023-04-10T00:00:15.560Z,100684.70
2023-04-10T00:01:20.470Z,100675.92
2023-04-10T00:02:40.165Z,100683.91
2023-04-10T00:03:44.150Z,100681.25
2023-04-10T00:04:47.821Z,100679.52
2023-04-10T00:05:50.517Z,100677.78
2023-04-10T00:06:59.967Z,100682.04
2023-04-10T00:08:04.437Z,100686.70
2023-04-10T00:09:11.421Z,100682.31
2023-04-10T00:10:16.383Z,100688.57
2023-04-10T00:11:20.711Z,100684.11
2023-04-10T00:12:25.165Z,100685.91
2023-04-10T00:13:31.603Z,100686.70
2023-04-10T00:14:36.547Z,100679.66
2023-04-10T00:15:41.243Z,100682.48
2023-04-10T00:16:44.667Z,100684.05
2023-04-10T00:17:52.339Z,100682.31
2023-04-10T00:18:56.115Z,100686.88
2023-04-10T00:20:01.273Z,100683.34
2023-04-10T00:21:07.066Z,100681.55
2023-04-10T00:22:13.833Z,100681.55
2023-04-10T00:23:16.656Z,100686.70
2023-04-10T00:24:21.636Z,100680.69
2023-04-10T00:25:24.601Z,100680.69
2023-04-10T00:26:29.505Z,100688.57
2023-04-10T00:27:35.552Z,100687.64
2023-04-10T00:28:42.112Z,100684.21
2023-04-10T00:29:47.819Z,100677.16
2023-04-10T00:30:57.785Z,100679.82
2023-04-10T00:32:02.200Z,100683.41
2023-04-10T00:33:06.680Z,100676.23
2023-04-10T00:34:12.418Z,100685.05
2023-04-10T00:35:17.633Z,100681.55
2023-04-10T00:36:25.263Z,100672.47
2023-04-10T00:37:32.436Z,100679.66
2023-04-10T00:38:36.557Z,100675.43
2023-04-10T00:39:45.154Z,100679.66
2023-04-10T00:40:54.002Z,100678.09
2023-04-10T00:41:59.036Z,100683.41
2023-04-10T00:43:02.460Z,100676.23
2023-04-10T00:44:04.964Z,100684.11
2023-04-10T00:45:10.044Z,100672.60
2023-04-10T00:46:14.022Z,100683.25
2023-04-10T00:47:22.410Z,100676.23
2023-04-10T00:48:26.931Z,100677.78
2023-04-10T00:49:32.251Z,100684.97
2023-04-10T00:50:34.646Z,100679.02
2023-04-10T00:51:37.914Z,100677.92
2023-04-10T00:52:45.711Z,100680.58
2023-04-10T00:53:51.869Z,100674.50
2023-04-10T00:54:57.795Z,100679.66
2023-04-10T00:56:05.424Z,100677.92
2023-04-10T00:57:10.346Z,100686.88
2023-04-10T00:58:14.983Z,100677.92
2023-04-10T00:59:23.003Z,100677.06
2023-04-10T01:00:31.181Z,100679.52
2023-04-10T01:01:36.495Z,100677.78
2023-04-10T01:02:45.076Z,100674.33
2023-04-10T01:03:51.645Z,100682.25
2023-04-10T01:04:59.462Z,100678.72
2023-04-10T01:06:38.390Z,100677.78
2023-04-10T01:08:00.998Z,100682.11
2023-04-10T01:09:16.191Z,100680.25
2023-04-10T01:10:26.178Z,100671.53
2023-04-10T01:13:31.624Z,100671.88
2023-04-10T01:14:57.076Z,100673.56
2023-04-10T01:16:02.917Z,100679.66
2023-04-10T01:18:32.892Z,100670.95
2023-04-10T01:19:58.892Z,100670.11
2023-04-10T01:21:04.523Z,100672.53
2023-04-10T01:22:07.805Z,100674.20
2023-04-10T01:23:22.733Z,100683.25
2023-04-10T01:24:43.958Z,100673.39
2023-04-10T01:25:55.994Z,100673.47
2023-04-10T01:28:58.059Z,100677.45
2023-04-10T01:30:02.173Z,100673.84
2023-04-10T01:31:08.511Z,100673.77
2023-04-10T01:32:15.274Z,100669.31
2023-04-10T01:33:20.805Z,100671.97
2023-04-10T01:35:41.827Z,100674.13
2023-04-10T01:38:08.946Z,100670.91
2023-04-10T01:39:11.999Z,100671.62
2023-04-10T01:40:18.090Z,100667.06
2023-04-10T01:41:22.230Z,100663.53
2023-04-10T01:42:26.232Z,100667.86
2023-04-10T01:43:31.308Z,100670.58
2023-04-10T01:44:36.005Z,100671.37
2023-04-10T01:45:40.247Z,100664.27
2023-04-10T01:46:45.750Z,100667.86
2023-04-10T01:47:49.740Z,100666.06
2023-04-10T01:48:54.878Z,100662.53
2023-04-10T01:49:58.772Z,100668.72
2023-04-10T01:51:03.753Z,100667.86
2023-04-10T01:52:07.418Z,100667.86
2023-04-10T01:53:10.547Z,100672.38
2023-04-10T01:54:13.762Z,100676.14
2023-04-10T01:55:17.069Z,100673.55
2023-04-10T01:56:21.836Z,100674.28
2023-04-10T01:57:25.122Z,100664.56
2023-04-10T01:58:29.893Z,100671.75
2023-04-10T01:59:32.875Z,100672.69
2023-04-10T02:01:49.056Z,100672.91
2023-04-10T02:02:52.754Z,100678.06
2023-04-10T02:03:57.913Z,100678.94
2023-04-10T02:05:01.303Z,100678.00
2023-04-10T02:06:10.236Z,100677.08
2023-04-10T02:07:19.156Z,100675.20
2023-04-10T02:09:43.823Z,100674.50
2023-04-10T02:12:11.341Z,100676.30
2023-04-10T02:13:16.971Z,100676.14
2023-04-10T02:14:21.730Z,100674.28
2023-04-10T02:15:27.479Z,100677.80
2023-04-10T02:16:31.860Z,100680.53
2023-04-10T02:17:36.056Z,100676.94
2023-04-10T02:18:42.057Z,100679.50
2023-04-10T02:19:47.866Z,100678.63
2023-04-10T02:20:50.415Z,100674.97
2023-04-10T02:21:53.842Z,100675.14
2023-04-10T02:22:56.733Z,100680.36
2023-04-10T02:24:00.754Z,100676.77
2023-04-10T02:25:04.808Z,100674.28
2023-04-10T02:26:09.065Z,100676.14
2023-04-10T02:41:39.015Z,100682.78
2023-04-10T02:42:41.382Z,100684.83
2023-04-10T02:43:43.641Z,100682.05
2023-04-10T02:44:47.410Z,100685.63
2023-04-10T02:45:50.210Z,100682.05
2023-04-10T02:46:54.772Z,100684.70
2023-04-10T02:47:57.621Z,100685.50
2023-04-10T02:49:00.586Z,100690.82
2023-04-10T02:50:03.509Z,100693.42
2023-04-10T02:51:07.440Z,100692.55
2023-04-10T02:52:10.824Z,100692.42
2023-04-10T02:53:15.136Z,100694.12
2023-04-10T02:54:17.371Z,100690.69
2023-04-10T02:55:19.653Z,100696.64
2023-04-10T02:56:22.390Z,100697.58
2023-04-10T02:57:25.104Z,100694.92
2023-04-10T02:58:27.858Z,100692.20
2023-04-10T02:59:30.381Z,100693.86
2023-04-10T03:00:33.480Z,100693.86
2023-04-10T03:01:40.492Z,100692.93
2023-04-10T03:02:42.814Z,100701.03
2023-04-10T03:03:47.061Z,100699.17
2023-04-10T03:04:51.341Z,100696.52
2023-04-10T03:05:53.820Z,100693.73
2023-04-10T03:06:57.918Z,100686.68
2023-04-10T03:08:00.598Z,100692.80
2023-04-10T03:09:02.985Z,100692.80
2023-04-10T03:10:06.205Z,100693.59
2023-04-10T03:11:08.472Z,100697.19
2023-04-10T03:12:10.831Z,100694.66
2023-04-10T03:13:13.520Z,100697.31
2023-04-10T03:14:16.317Z,100693.86
2023-04-10T03:15:18.408Z,100698.25
2023-04-10T03:16:20.685Z,100697.38
2023-04-10T03:17:23.611Z,100699.05
2023-04-10T03:18:26.256Z,100699.91
2023-04-10T03:19:29.170Z,100699.98
2023-04-10T03:20:32.835Z,100702.64
2023-04-10T03:21:35.175Z,100692.86
2023-04-10T03:22:39.205Z,100703.44
2023-04-10T03:23:42.216Z,100700.77
2023-04-10T03:24:46.699Z,100699.84
2023-04-10T03:25:51.828Z,100693.73
2023-04-10T03:26:54.036Z,100697.19
2023-04-10T03:27:56.092Z,100700.77
2023-04-10T03:28:58.830Z,100700.77
2023-04-10T03:30:01.097Z,100700.71
2023-04-10T03:31:05.186Z,100704.23
2023-04-10T03:32:10.087Z,100696.39
2023-04-10T03:33:12.399Z,100699.05
2023-04-10T03:34:14.696Z,100700.77
2023-04-10T03:35:17.491Z,100697.31
2023-04-10T03:36:19.701Z,100699.98
2023-04-10T03:37:23.314Z,100711.67
2023-04-10T03:38:25.576Z,100697.45
2023-04-10T03:39:28.276Z,100707.16
2023-04-10T03:40:30.655Z,100707.09
2023-04-10T03:41:33.360Z,100699.17
2023-04-10T03:42:36.520Z,100703.63
2023-04-10T03:43:39.755Z,100697.45
2023-04-10T03:44:43.115Z,100700.91
2023-04-10T03:45:45.654Z,100699.17
2023-04-10T03:46:49.123Z,100703.70
2023-04-10T03:47:52.853Z,100702.77
2023-04-10T03:48:55.366Z,100704.63
2023-04-10T03:49:58.051Z,100704.50
2023-04-10T03:51:02.849Z,100696.45
2023-04-10T03:52:05.232Z,100702.77
2023-04-10T03:53:08.004Z,100697.58
2023-04-10T03:54:10.244Z,100707.34
2023-04-10T03:55:12.552Z,100707.28
2023-04-10T03:56:15.312Z,100703.77
2023-04-10T03:57:17.482Z,100717.92
2023-04-10T03:58:20.265Z,100708.09
2023-04-10T03:59:31.039Z,100708.09
2023-04-10T04:00:27.199Z,100708.22
2023-04-10T04:01:31.339Z,100704.76
2023-04-10T04:02:38.644Z,100707.28
2023-04-10T04:03:41.926Z,100713.47
2023-04-10T04:05:03.124Z,100709.95
2023-04-10T04:06:16.531Z,100714.40
2023-04-10T04:07:23.512Z,100708.16
2023-04-10T04:08:39.483Z,100713.41
2023-04-10T04:09:43.854Z,100713.28
2023-04-10T04:10:50.857Z,100718.78
2023-04-10T04:12:00.890Z,100722.31
2023-04-10T04:13:20.985Z,100726.77
2023-04-10T04:14:30.694Z,100724.05
2023-04-10T04:15:34.809Z,100719.02
2023-04-10T04:16:54.366Z,100726.89
2023-04-10T04:18:01.374Z,100723.24
2023-04-10T04:19:08.842Z,100723.17
2023-04-10T04:20:17.734Z,100727.63
2023-04-10T04:21:21.746Z,100727.56
2023-04-10T04:22:42.032Z,100726.83
2023-04-10T04:24:55.216Z,100727.25
2023-04-10T04:26:17.202Z,100728.05
2023-04-10T04:27:24.169Z,100727.77
2023-04-10T04:28:30.320Z,100725.91
2023-04-10T04:29:34.451Z,100725.77
2023-04-10T04:30:44.209Z,100721.32
2023-04-10T04:31:54.283Z,100724.91
2023-04-10T04:32:58.394Z,100728.37
2023-04-10T04:34:02.644Z,100729.36
2023-04-10T04:35:07.472Z,100726.64
2023-04-10T04:36:14.192Z,100731.09
2023-04-10T04:38:39.593Z,100727.95
2023-04-10T04:40:02.258Z,100734.81
2023-04-10T04:42:30.584Z,100731.47
2023-04-10T04:43:37.965Z,100730.42
2023-04-10T04:44:42.599Z,100734.68
2023-04-10T04:45:47.034Z,100727.63
2023-04-10T04:48:03.879Z,100734.12
2023-04-10T04:49:07.831Z,100734.01
2023-04-10T04:51:26.654Z,100736.09
2023-04-10T04:52:33.764Z,100734.97
2023-04-10T04:53:43.961Z,100732.22
2023-04-10T04:55:03.127Z,100739.13
2023-04-10T04:56:22.216Z,100740.80
2023-04-10T04:57:43.289Z,100740.61
2023-04-10T04:58:56.567Z,100737.08
2023-04-10T05:00:15.751Z,100745.92
2023-04-10T05:01:24.791Z,100742.47
2023-04-10T05:02:31.867Z,100744.27
2023-04-10T05:03:39.080Z,100746.98
2023-04-10T05:04:59.676Z,100746.13
2023-04-10T05:06:22.051Z,100744.39
2023-04-10T05:07:38.283Z,100747.05
2023-04-10T05:08:48.456Z,100747.05
2023-04-10T05:10:10.278Z,100747.05
2023-04-10T05:11:14.922Z,100747.98
2023-04-10T05:13:30.266Z,100744.64
2023-04-10T05:14:34.315Z,100750.52
2023-04-10T05:15:41.814Z,100744.33
2023-04-10T05:16:46.393Z,100756.63
2023-04-10T05:17:53.912Z,100751.25
2023-04-10T05:19:14.393Z,100753.84
2023-04-10T05:20:35.851Z,100759.00
2023-04-10T05:21:39.824Z,100755.41
2023-04-10T05:22:49.695Z,100760.73
2023-04-10T05:23:53.568Z,100757.20
2023-04-10T05:25:00.215Z,100757.27
2023-04-10T05:26:08.276Z,100761.66
2023-04-10T05:27:16.423Z,100758.07
2023-04-10T05:28:20.530Z,100753.55
2023-04-10T05:30:34.263Z,100761.05
2023-04-10T05:31:41.544Z,100760.73
2023-04-10T05:32:51.431Z,100763.33
2023-04-10T05:34:12.275Z,100759.87
2023-04-10T05:35:22.409Z,100757.14
2023-04-10T05:36:32.762Z,100762.33
2023-04-10T05:37:45.464Z,100761.41
2023-04-10T05:38:58.963Z,100763.13
2023-04-10T05:40:03.574Z,100759.55
2023-04-10T05:41:08.136Z,100764.64
2023-04-10T05:42:14.980Z,100761.05
2023-04-10T05:43:24.855Z,100759.25
2023-04-10T05:44:30.042Z,100760.05
2023-04-10T05:45:34.745Z,100761.91
2023-04-10T05:46:39.121Z,100760.92
2023-04-10T05:47:43.419Z,100768.97
2023-04-10T05:48:47.450Z,100775.02
2023-04-10T05:50:09.920Z,100759.19
2023-04-10T05:52:23.237Z,100766.71
2023-04-10T05:53:36.768Z,100766.37
2023-04-10T05:54:44.169Z,100768.97
2023-04-10T05:56:05.085Z,100765.50
2023-04-10T05:58:24.006Z,100770.30
2023-04-10T05:59:26.051Z,100767.52
2023-04-10T06:01:51.478Z,100759.66
2023-04-10T06:02:53.789Z,100767.23
2023-04-10T06:03:58.016Z,100767.23
2023-04-10T06:05:00.554Z,100769.03
2023-04-10T06:06:06.532Z,100771.75
2023-04-10T06:07:11.770Z,100764.58
2023-04-10T06:08:15.258Z,100768.09
2023-04-10T06:09:17.554Z,100770.69
2023-04-10T06:10:21.033Z,100772.48
2023-04-10T06:11:23.680Z,100776.81
2023-04-10T06:12:28.212Z,100777.61
2023-04-10T06:13:31.324Z,100774.16
2023-04-10T06:14:34.716Z,100775.89
2023-04-10T06:15:37.101Z,100774.16
2023-04-10T06:16:39.611Z,100777.68
2023-04-10T06:17:42.646Z,100775.89
2023-04-10T06:18:44.830Z,100774.16
2023-04-10T06:19:47.011Z,100773.29
2023-04-10T06:20:49.169Z,100773.29
2023-04-10T06:21:53.949Z,100781.34
2023-04-10T06:22:55.585Z,100776.81
2023-04-10T06:23:57.776Z,100778.67
2023-04-10T06:24:59.828Z,100778.67
2023-04-10T06:27:10.548Z,100780.95
2023-04-10T06:28:13.110Z,100784.22
2023-04-10T06:29:17.427Z,100778.97
2023-04-10T06:30:20.146Z,100779.90
2023-04-10T06:31:22.314Z,100787.81
2023-04-10T06:32:24.549Z,100782.56
2023-04-10T06:33:27.194Z,100779.90
2023-04-10T06:34:29.351Z,100778.97
2023-04-10T06:35:34.208Z,100770.98
2023-04-10T06:36:37.081Z,100780.60
2023-04-10T06:37:41.823Z,100785.06
2023-04-10T06:38:44.024Z,100782.39
2023-04-10T06:39:46.165Z,100773.42
2023-04-10T06:40:48.888Z,100784.06
2023-04-10T06:42:58.546Z,100783.67
2023-04-10T06:44:03.730Z,100786.66
2023-04-10T06:45:07.234Z,100782.20
2023-04-10T06:46:10.434Z,100780.34
2023-04-10T06:47:15.291Z,100774.02
2023-04-10T06:48:17.445Z,100774.89
2023-04-10T06:49:20.118Z,100781.20
2023-04-10T06:50:22.951Z,100783.80
2023-04-10T06:51:25.458Z,100789.19
2023-04-10T06:52:27.630Z,100789.19
2023-04-10T06:53:29.998Z,100790.13
2023-04-10T06:54:32.593Z,100779.48
2023-04-10T06:55:34.623Z,100783.06
2023-04-10T06:56:36.911Z,100786.72
2023-04-10T06:57:39.944Z,100785.80
2023-04-10T06:58:42.247Z,100786.78
2023-04-10T06:59:45.412Z,100787.59
2023-04-10T07:00:47.943Z,100785.80
2023-04-10T07:01:49.990Z,100781.34
2023-04-10T07:02:52.608Z,100791.98
2023-04-10T07:03:55.272Z,100785.80
2023-04-10T07:04:58.094Z,100783.20
2023-04-10T07:06:00.667Z,100789.55
2023-04-10T07:07:03.045Z,100794.93
2023-04-10T07:08:05.316Z,100796.66
2023-04-10T07:09:07.525Z,100789.67
2023-04-10T07:10:10.826Z,100794.13
2023-04-10T07:11:13.026Z,100786.21
2023-04-10T07:12:15.878Z,100794.26
2023-04-10T07:13:18.890Z,100788.94
2023-04-10T07:14:21.651Z,100793.45
2023-04-10T07:15:24.001Z,100789.93
2023-04-10T07:16:26.665Z,100797.97
2023-04-10T07:17:29.333Z,100796.24
2023-04-10T07:18:31.497Z,100789.99
2023-04-10T07:19:34.251Z,100799.64
2023-04-10T07:20:37.012Z,100797.84
2023-04-10T07:21:38.993Z,100806.63
2023-04-10T07:22:41.461Z,100801.31
2023-04-10T07:23:43.611Z,100797.72
2023-04-10T07:24:46.865Z,100801.31
2023-04-10T07:25:49.424Z,100806.63
2023-04-10T07:26:51.631Z,100798.59
2023-04-10T07:27:53.676Z,100804.84
2023-04-10T07:28:56.031Z,100803.97
2023-04-10T07:29:58.471Z,100802.17
2023-04-10T07:31:01.046Z,100810.09
2023-04-10T07:32:03.425Z,100810.96
2023-04-10T07:33:05.949Z,100808.36
2023-04-10T07:34:10.769Z,100810.22
2023-04-10T07:35:13.029Z,100806.63
2023-04-10T07:36:15.537Z,100810.22
2023-04-10T07:37:17.782Z,100799.58
2023-04-10T07:38:19.852Z,100808.48
2023-04-10T07:39:23.048Z,100810.22
2023-04-10T07:40:25.956Z,100810.22
2023-04-10T07:41:28.478Z,100810.22
2023-04-10T07:42:31.554Z,100818.14
2023-04-10T07:43:33.755Z,100816.47
2023-04-10T07:44:35.887Z,100815.54
2023-04-10T07:45:39.034Z,100814.67
2023-04-10T07:46:41.627Z,100820.06
2023-04-10T07:47:43.797Z,100813.01
2023-04-10T07:48:45.926Z,100817.33
2023-04-10T07:49:47.996Z,100818.14
2023-04-10T07:50:51.056Z,100813.75
2023-04-10T07:51:54.219Z,100815.54
2023-04-10T07:52:56.104Z,100821.79
2023-04-10T07:53:58.235Z,100816.41
2023-04-10T07:55:04.852Z,100824.45
2023-04-10T07:56:10.109Z,100814.73
2023-04-10T07:57:12.567Z,100826.31
2023-04-10T07:58:14.724Z,100825.44
2023-04-10T07:59:16.779Z,100821.79
2023-04-10T08:00:20.210Z,100826.98
2023-04-10T08:01:23.429Z,100829.64
2023-04-10T08:02:25.860Z,100819.93
2023-04-10T08:03:28.976Z,100822.66
2023-04-10T08:04:31.897Z,100828.78
2023-04-10T08:05:34.951Z,100826.19
2023-04-10T08:06:37.629Z,100818.14
2023-04-10T08:07:39.685Z,100822.47
2023-04-10T08:08:42.150Z,100817.08
2023-04-10T08:09:45.044Z,100828.36
2023-04-10T08:10:47.980Z,100819.39
2023-04-10T08:11:50.320Z,100820.06
2023-04-10T08:12:52.371Z,100811.95
2023-04-10T08:13:56.061Z,100810.05
2023-04-10T08:14:58.703Z,100817.91
2023-04-10T08:16:01.975Z,100817.91
2023-04-10T08:17:04.237Z,100817.78
2023-04-10T08:18:06.295Z,100826.56
2023-04-10T08:19:08.622Z,100822.97
2023-04-10T08:20:12.315Z,100819.52
2023-04-10T08:22:22.982Z,100827.74
2023-04-10T08:23:25.447Z,100826.63
2023-04-10T08:24:27.930Z,100824.70
2023-04-10T08:25:30.123Z,100824.70
2023-04-10T08:26:32.824Z,100826.44
2023-04-10T08:27:34.922Z,100821.88
2023-04-10T08:28:37.704Z,100826.34
2023-04-10T08:30:48.048Z,100827.61
2023-04-10T08:31:50.064Z,100828.17
2023-04-10T08:32:52.206Z,100823.55
2023-04-10T08:33:55.817Z,100828.73
2023-04-10T08:34:58.291Z,100825.88
2023-04-10T08:36:00.361Z,100825.75
2023-04-10T08:37:07.864Z,100821.92
2023-04-10T08:38:14.032Z,100823.48
2023-04-10T08:39:14.741Z,100821.45
2023-04-10T08:40:17.352Z,100818.45
2023-04-10T08:41:20.884Z,100815.58
2023-04-10T08:42:23.094Z,100811.88
2023-04-10T08:43:26.386Z,100812.61
2023-04-10T08:44:28.697Z,100819.53
2023-04-10T08:45:30.832Z,100811.41
2023-04-10T08:46:36.557Z,100820.02
2023-04-10T08:47:42.203Z,100818.88
2023-04-10T08:48:54.303Z,100814.20
2023-04-10T08:50:00.190Z,100816.69
2023-04-10T08:52:14.968Z,100817.61
2023-04-10T08:53:19.510Z,100815.41
2023-04-10T08:54:29.554Z,100819.73
2023-04-10T08:55:32.107Z,100818.69
2023-04-10T08:56:37.558Z,100823.81
2023-04-10T08:57:42.850Z,100829.07
2023-04-10T08:58:45.002Z,100822.88
2023-04-10T08:59:48.940Z,100821.86
2023-04-10T09:00:51.710Z,100827.92
2023-04-10T09:01:54.035Z,100823.45
2023-04-10T09:02:56.414Z,100836.61
2023-04-10T09:04:00.219Z,100826.02
2023-04-10T09:05:04.919Z,100819.67
2023-04-10T09:06:08.584Z,100824.06
2023-04-10T09:07:10.579Z,100824.86
2023-04-10T09:08:15.453Z,100826.73
2023-04-10T09:09:17.764Z,100828.47
2023-04-10T09:10:20.480Z,100834.73
2023-04-10T09:11:22.711Z,100830.20
2023-04-10T09:12:24.719Z,100826.59
2023-04-10T09:13:44.217Z,100825.58
2023-04-10T09:14:46.438Z,100823.63
2023-04-10T09:15:55.995Z,100831.45
2023-04-10T09:17:19.891Z,100822.52
2023-04-10T09:18:22.649Z,100820.64
2023-04-10T09:20:42.996Z,100820.81
2023-04-10T09:21:49.301Z,100817.83
2023-04-10T09:22:52.127Z,100823.02
2023-04-10T09:24:00.780Z,100823.02
2023-04-10T09:25:03.990Z,100821.14
2023-04-10T09:27:35.929Z,100824.20
2023-04-10T09:28:55.948Z,100821.36
2023-04-10T09:29:59.676Z,100825.83
2023-04-10T09:31:02.545Z,100827.56
2023-04-10T09:32:04.894Z,100824.82
2023-04-10T09:33:25.085Z,100823.95
2023-04-10T09:35:57.999Z,100829.68
2023-04-10T09:37:01.932Z,100826.98
2023-04-10T09:39:37.940Z,100831.70
2023-04-10T09:40:40.254Z,100839.53
2023-04-10T09:41:54.537Z,100835.06
2023-04-10T09:42:56.741Z,100834.91
2023-04-10T09:45:16.809Z,100838.69
2023-04-10T09:46:28.054Z,100841.26
2023-04-10T09:47:31.363Z,100841.98
2023-04-10T09:48:33.544Z,100836.64
2023-04-10T09:49:51.175Z,100832.10
2023-04-10T09:50:53.421Z,100832.89
2023-04-10T09:51:55.721Z,100837.22
2023-04-10T09:52:57.732Z,100833.61
2023-04-10T09:54:00.829Z,100826.47
2023-04-10T09:56:14.876Z,100831.98
2023-04-10T09:57:18.955Z,100831.62
2023-04-10T09:58:23.921Z,100828.89
2023-04-10T09:59:26.226Z,100837.61
2023-04-10T10:00:28.753Z,100834.87
2023-04-10T10:01:33.060Z,100835.73
2023-04-10T10:02:38.011Z,100823.19
2023-04-10T10:03:41.407Z,100828.52
2023-04-10T10:04:45.668Z,100828.52
2023-04-10T10:05:50.498Z,100832.12
2023-04-10T10:06:53.234Z,100826.64
2023-04-10T10:07:56.487Z,100834.64
2023-04-10T10:09:03.887Z,100827.50
2023-04-10T10:10:07.594Z,100826.79
2023-04-10T10:11:10.243Z,100834.64
2023-04-10T10:12:28.020Z,100827.58
2023-04-10T10:16:35.396Z,100822.41
2023-04-10T10:17:53.586Z,100824.91
2023-04-10T10:19:19.564Z,100821.13
2023-04-10T10:20:24.795Z,100816.50
2023-04-10T10:21:28.696Z,100820.67
2023-04-10T10:22:31.848Z,100822.22
2023-04-10T10:23:36.089Z,100828.38
2023-04-10T10:24:41.564Z,100821.95
2023-04-10T10:25:45.393Z,100823.53
2023-04-10T10:26:49.714Z,100820.78
2023-04-10T10:27:55.180Z,100823.53
2023-04-10T10:29:00.508Z,100814.58
2023-04-10T10:30:12.019Z,100814.66
2023-04-10T10:31:08.232Z,100823.37
2023-04-10T10:32:12.730Z,100810.25
2023-04-10T10:33:15.020Z,100813.72
2023-04-10T10:34:17.929Z,100814.50
2023-04-10T10:35:20.769Z,100819.91
2023-04-10T10:36:24.869Z,100816.13
2023-04-10T10:37:29.830Z,100810.03
2023-04-10T10:38:33.366Z,100815.26
2023-04-10T10:39:51.557Z,100813.30
2023-04-10T10:41:18.773Z,100805.29
2023-04-10T10:42:39.821Z,100806.00
2023-04-10T10:45:14.790Z,100809.66
2023-04-10T10:46:35.733Z,100812.20
2023-04-10T10:50:07.386Z,100809.82
2023-04-10T10:51:09.583Z,100808.75
2023-04-10T10:52:11.717Z,100799.87
2023-04-10T10:53:35.838Z,100808.67
2023-04-10T10:54:47.134Z,100808.59
2023-04-10T10:55:42.534Z,100807.65
2023-04-10T10:56:44.917Z,100807.58
2023-04-10T10:57:48.978Z,100813.70
2023-04-10T10:58:56.559Z,100813.59
2023-04-10T10:59:59.030Z,100809.11
2023-04-10T11:01:07.852Z,100804.63
2023-04-10T11:03:26.788Z,100809.16
2023-04-10T11:05:57.158Z,100807.44
2023-04-10T11:06:59.979Z,100815.16
2023-04-10T11:08:07.123Z,100811.55
2023-04-10T11:09:12.889Z,100809.66
2023-04-10T11:10:15.791Z,100811.23
2023-04-10T11:11:25.359Z,100807.63
2023-04-10T11:12:27.652Z,100807.44
2023-04-10T11:13:29.844Z,100801.15
2023-04-10T11:14:33.632Z,100814.34
2023-04-10T11:15:36.508Z,100812.46
2023-04-10T11:16:42.386Z,100810.49
2023-04-10T11:17:52.483Z,100804.13
2023-04-10T11:20:04.164Z,100809.28
2023-04-10T11:21:12.145Z,100802.99
2023-04-10T11:22:14.368Z,100810.06
2023-04-10T11:23:16.890Z,100806.45
2023-04-10T11:24:19.587Z,100803.86
2023-04-10T11:25:21.673Z,100802.83
2023-04-10T11:26:39.961Z,100804.72
2023-04-10T11:28:53.551Z,100799.65
2023-04-10T11:29:56.041Z,100802.20
2023-04-10T11:31:20.139Z,100793.09
2023-04-10T11:32:22.483Z,100794.81
2023-04-10T11:33:25.764Z,100794.58
2023-04-10T11:34:28.957Z,100794.30
2023-04-10T11:35:32.120Z,100794.42
2023-04-10T11:36:37.045Z,100786.28
2023-04-10T11:37:39.240Z,100791.62
2023-04-10T11:38:43.181Z,100786.28
2023-04-10T11:39:45.271Z,100789.74
2023-04-10T11:42:12.003Z,100783.83
2023-04-10T11:43:14.591Z,100779.05
2023-04-10T11:44:31.718Z,100779.75
2023-04-10T11:45:33.955Z,100786.83
2023-04-10T11:46:41.714Z,100777.95
2023-04-10T11:47:54.512Z,100782.34
2023-04-10T11:49:00.366Z,100777.00
2023-04-10T11:50:02.682Z,100778.65
2023-04-10T11:51:10.190Z,100776.92
2023-04-10T11:52:12.747Z,100778.73
2023-04-10T11:53:19.665Z,100771.66
2023-04-10T11:54:23.969Z,100764.59
2023-04-10T11:55:38.889Z,100773.38
2023-04-10T11:56:43.126Z,100767.17
2023-04-10T11:57:45.337Z,100769.77
2023-04-10T11:58:50.093Z,100753.56
2023-04-10T11:59:52.218Z,100754.23
2023-04-10T12:01:03.840Z,100756.82
2023-04-10T12:03:34.657Z,100752.17
2023-04-10T12:04:37.392Z,100758.71
2023-04-10T12:06:57.578Z,100740.50
2023-04-10T12:08:00.250Z,100746.28
2023-04-10T12:09:06.549Z,100744.22
2023-04-10T12:10:09.194Z,100746.66
2023-04-10T12:11:11.860Z,100743.88
2023-04-10T12:12:14.554Z,100735.84
2023-04-10T12:13:27.318Z,100741.97
2023-04-10T12:14:39.479Z,100736.71
2023-04-10T12:15:41.870Z,100742.17
2023-04-10T12:16:45.177Z,100740.45
2023-04-10T12:17:47.909Z,100736.11
2023-04-10T12:18:50.713Z,100737.14
2023-04-10T12:19:53.595Z,100741.71
2023-04-10T12:20:56.846Z,100742.66
2023-04-10T12:21:59.731Z,100740.07
2023-04-10T12:23:02.050Z,100740.94
2023-04-10T12:24:04.937Z,100738.43
2023-04-10T12:26:20.060Z,100734.55
2023-04-10T12:27:25.084Z,100732.84
2023-04-10T12:28:27.756Z,100730.17
2023-04-10T12:29:29.929Z,100733.02
2023-04-10T12:30:32.211Z,100743.70
2023-04-10T12:31:36.201Z,100727.66
2023-04-10T12:32:39.388Z,100730.25
2023-04-10T12:33:46.507Z,100729.22
2023-04-10T12:36:06.517Z,100719.45
2023-04-10T12:37:09.249Z,100722.67
2023-04-10T12:38:11.390Z,100719.91
2023-04-10T12:39:24.163Z,100714.57
2023-04-10T12:40:26.344Z,100723.45
2023-04-10T12:41:31.016Z,100718.11
2023-04-10T12:42:37.776Z,100718.19
2023-04-10T12:43:41.782Z,100719.14
2023-04-10T12:44:56.332Z,100720.09
2023-04-10T12:45:58.659Z,100718.27
2023-04-10T12:47:01.968Z,100717.33
2023-04-10T12:48:04.228Z,100711.81
2023-04-10T12:49:12.056Z,100710.74
2023-04-10T12:51:47.976Z,100703.32
2023-04-10T12:53:05.119Z,100713.50
2023-04-10T12:54:07.324Z,100709.70
2023-04-10T12:56:23.748Z,100694.83
2023-04-10T12:57:26.609Z,100706.08
2023-04-10T12:58:30.061Z,100705.91
2023-04-10T12:59:32.376Z,100701.13
2023-04-10T13:00:37.301Z,100698.28
2023-04-10T13:01:39.632Z,100701.55
2023-04-10T13:02:42.397Z,100693.26
2023-04-10T13:03:44.985Z,100703.57
2023-04-10T13:04:48.186Z,100702.36
2023-04-10T13:05:51.478Z,100697.56
2023-04-10T13:06:53.777Z,100700.74
2023-04-10T13:07:56.400Z,100697.80
2023-04-10T13:08:58.935Z,100691.41
2023-04-10T13:10:01.012Z,100693.00
2023-04-10T13:11:03.177Z,100691.09
2023-04-10T13:12:05.349Z,100697.41
2023-04-10T13:13:08.603Z,100694.72
2023-04-10T13:14:10.733Z,100693.86
2023-04-10T13:15:12.824Z,100690.33
2023-04-10T13:16:16.220Z,100688.52
2023-04-10T13:17:18.382Z,100688.42
2023-04-10T13:18:20.885Z,100683.83
2023-04-10T13:19:23.163Z,100681.92
2023-04-10T13:20:26.222Z,100695.13
2023-04-10T13:21:29.954Z,100689.00
2023-04-10T13:22:32.110Z,100698.75
2023-04-10T13:23:34.163Z,100695.96
2023-04-10T13:24:36.866Z,100686.09
2023-04-10T13:25:40.013Z,100691.11
2023-04-10T13:26:42.525Z,100687.27
2023-04-10T13:27:44.572Z,100691.37
2023-04-10T13:28:47.189Z,100694.13
2023-04-10T13:29:49.749Z,100690.73
2023-04-10T13:30:51.824Z,100690.91
2023-04-10T13:31:54.053Z,100696.08
2023-04-10T13:32:56.250Z,100694.36
2023-04-10T13:33:58.394Z,100696.25
2023-04-10T13:35:00.593Z,100683.05
2023-04-10T13:36:03.454Z,100681.25
2023-04-10T13:37:05.829Z,100696.25
2023-04-10T13:38:07.958Z,100672.97